createdAt,value
2022-09-24T00:01:22.326Z,61.72
2022-09-24T00:03:53.798Z,59.40
2022-09-24T00:06:21.541Z,63.65
2022-09-24T00:08:49.665Z,61.95
2022-09-24T00:11:19.795Z,62.03
2022-09-24T00:13:47.677Z,61.15
2022-09-24T00:16:16.185Z,63.45
2022-09-24T00:18:43.594Z,61.17
2022-09-24T00:21:18.099Z,62.72
2022-09-24T00:23:45.439Z,64.18
2022-09-24T00:26:31.847Z,62.75
2022-09-24T00:28:59.525Z,64.85
2022-09-24T00:31:27.293Z,65.05
2022-09-24T00:33:54.972Z,63.45
2022-09-24T00:36:22.851Z,65.38
2022-09-24T00:38:54.529Z,65.57
2022-09-24T00:43:49.394Z,62.35
2022-09-24T00:46:35.185Z,66.38
2022-09-24T00:49:05.103Z,66.30
2022-09-24T00:51:33.274Z,67.93
2022-09-24T00:54:02.172Z,68.68
2022-09-24T00:56:31.224Z,71.30
2022-09-24T00:59:01.360Z,70.50
2022-09-24T01:01:29.709Z,70.40
2022-09-24T01:03:58.133Z,69.55
2022-09-24T01:06:26.113Z,73.65
2022-09-24T01:08:54.422Z,70.60
2022-09-24T01:11:34.652Z,70.45
2022-09-24T01:14:19.915Z,72.95
2022-09-24T01:17:05.750Z,71.05
2022-09-24T01:19:32.932Z,70.63
2022-09-24T01:22:05.128Z,74.10
2022-09-24T01:24:36.056Z,74.20
2022-09-24T01:27:06.392Z,75.63
2022-09-24T01:29:48.047Z,77.78
2022-09-24T01:32:18.863Z,74.25
2022-09-24T01:35:00.561Z,74.50
2022-09-24T01:37:29.690Z,78.53
2022-09-24T01:39:57.865Z,77.30
2022-09-24T01:42:26.901Z,79.43
2022-09-24T01:44:55.258Z,76.53
2022-09-24T01:47:35.133Z,78.60
2022-09-24T01:50:03.071Z,75.60
2022-09-24T01:52:36.579Z,78.03
2022-09-24T01:55:05.050Z,77.57
2022-09-24T01:57:39.078Z,77.25
2022-09-24T02:00:12.924Z,74.20
2022-09-24T02:02:45.285Z,75.32
2022-09-24T02:05:19.637Z,74.80
2022-09-24T02:07:51.708Z,74.68
2022-09-24T02:10:21.054Z,76.55
2022-09-24T02:12:52.661Z,78.70
2022-09-24T02:17:50.284Z,75.97
2022-09-24T02:20:18.812Z,80.82
2022-09-24T02:22:46.750Z,81.65
2022-09-24T02:25:15.329Z,80.10
2022-09-24T02:27:42.569Z,81.20
2022-09-24T02:30:10.996Z,82.53
2022-09-24T02:32:40.616Z,84.50
2022-09-24T02:35:09.824Z,84.53
2022-09-24T02:37:38.739Z,85.22
2022-09-24T02:40:07.140Z,87.43
2022-09-24T02:42:35.115Z,86.68
2022-09-24T02:45:04.340Z,88.05
2022-09-24T02:47:31.610Z,92.35
2022-09-24T02:49:58.815Z,92.80
2022-09-24T02:52:26.065Z,89.55
2022-09-24T02:54:53.248Z,94.47
2022-09-24T02:57:20.503Z,90.32
2022-09-24T02:59:47.921Z,94.10
2022-09-24T03:02:15.390Z,96.10
2022-09-24T03:04:42.915Z,93.60
2022-09-24T03:07:11.510Z,94.20
2022-09-24T03:09:38.755Z,97.22
2022-09-24T03:12:05.994Z,96.18
2022-09-24T03:14:33.326Z,98.45
2022-09-24T03:17:00.523Z,96.05
2022-09-24T03:19:27.717Z,101.95
2022-09-24T03:21:54.958Z,101.35
2022-09-24T03:24:22.161Z,101.40
2022-09-24T03:26:49.410Z,100.55
2022-09-24T03:29:16.618Z,99.57
2022-09-24T03:31:43.966Z,102.85
2022-09-24T03:34:11.296Z,100.00
2022-09-24T03:36:38.528Z,103.80
2022-09-24T03:39:05.773Z,102.75
2022-09-24T03:41:33.060Z,103.88
2022-09-24T03:44:00.265Z,102.40
2022-09-24T03:46:28.548Z,100.78
2022-09-24T03:48:56.191Z,99.90
2022-09-24T03:51:23.475Z,94.90
2022-09-24T03:53:50.718Z,93.95
2022-09-24T03:56:17.971Z,90.32
2022-09-24T03:58:47.585Z,90.30
2022-09-24T04:01:20.606Z,83.95
2022-09-24T04:03:48.691Z,81.32
2022-09-24T04:06:16.049Z,82.50
2022-09-24T04:08:43.309Z,76.40
2022-09-24T04:11:10.551Z,71.38
2022-09-24T04:13:37.779Z,66.43
2022-09-24T04:16:05.366Z,66.32
2022-09-24T04:18:36.967Z,68.55
2022-09-24T04:21:06.258Z,63.10
2022-09-24T04:23:33.535Z,60.75
2022-09-24T04:26:02.406Z,59.85
2022-09-24T04:28:30.486Z,55.78
2022-09-24T04:30:58.164Z,53.70
2022-09-24T04:33:25.553Z,56.00
2022-09-24T04:35:52.929Z,59.53
2022-09-24T04:38:21.456Z,69.55
2022-09-24T04:40:49.050Z,75.30
2022-09-24T04:43:16.936Z,75.25
2022-09-24T04:45:45.813Z,79.65
2022-09-24T04:48:13.435Z,84.13
2022-09-24T04:50:45.484Z,82.07
2022-09-24T04:53:13.497Z,79.22
2022-09-24T04:55:41.838Z,75.70
2022-09-24T04:58:09.449Z,65.03
2022-09-24T05:00:36.953Z,61.03
2022-09-24T05:03:04.300Z,60.10
2022-09-24T05:05:32.829Z,56.50
2022-09-24T05:08:01.611Z,53.50
2022-09-24T05:10:29.432Z,52.08
2022-09-24T05:12:56.787Z,48.45
2022-09-24T05:15:23.994Z,49.92
2022-09-24T05:17:51.230Z,49.90
2022-09-24T05:20:18.495Z,47.42
2022-09-24T05:22:46.321Z,47.13
2022-09-24T05:25:14.174Z,46.20
2022-09-24T05:27:47.164Z,43.00
2022-09-24T05:30:14.715Z,42.78
2022-09-24T05:32:42.142Z,40.97
2022-09-24T05:35:09.621Z,39.65
2022-09-24T05:37:37.295Z,35.60
2022-09-24T05:40:24.185Z,31.35
2022-09-24T05:42:51.858Z,26.38
2022-09-24T05:45:19.179Z,25.85
2022-09-24T05:47:46.978Z,21.58
2022-09-24T05:50:14.636Z,19.17
2022-09-24T05:52:42.889Z,13.73
2022-09-24T05:55:10.850Z,13.82
2022-09-24T05:57:38.384Z,12.32
2022-09-24T06:00:06.803Z,10.48
2022-09-24T06:02:34.102Z,10.70
2022-09-24T06:05:01.466Z,9.57
2022-09-24T06:07:28.737Z,7.95
2022-09-24T06:09:59.139Z,7.72
2022-09-24T06:12:26.452Z,7.45
2022-09-24T06:14:54.160Z,8.35
2022-09-24T06:17:21.733Z,7.32
2022-09-24T06:19:49.090Z,7.80
2022-09-24T06:22:16.344Z,7.53
2022-09-24T06:24:43.617Z,8.05
2022-09-24T06:27:10.914Z,7.43
2022-09-24T06:29:38.180Z,8.15
2022-09-24T06:32:05.549Z,16.48
2022-09-24T06:34:32.952Z,26.75
2022-09-24T06:37:00.686Z,35.55
2022-09-24T06:39:27.937Z,45.70
2022-09-24T06:41:55.197Z,46.33
2022-09-24T06:44:22.410Z,49.40
2022-09-24T06:46:49.681Z,52.67
2022-09-24T06:49:16.937Z,56.13
2022-09-24T06:51:44.186Z,59.38
2022-09-24T06:54:11.400Z,59.30
2022-09-24T06:56:38.643Z,67.03
2022-09-24T06:59:06.677Z,82.70
2022-09-24T07:01:34.106Z,64.88
2022-09-24T07:04:01.529Z,66.22
2022-09-24T07:06:48.812Z,65.80
2022-09-24T07:09:16.053Z,65.43
2022-09-24T07:11:46.587Z,65.03
2022-09-24T07:14:14.208Z,63.42
2022-09-24T07:16:41.484Z,60.97
2022-09-24T07:19:08.830Z,59.28
2022-09-24T07:21:36.072Z,55.95
2022-09-24T07:24:03.462Z,53.65
2022-09-24T07:26:30.711Z,46.47
2022-09-24T07:28:57.956Z,32.78
2022-09-24T07:31:26.375Z,25.73
2022-09-24T07:33:53.865Z,23.75
2022-09-24T07:36:21.112Z,22.60
2022-09-24T07:38:48.427Z,22.23
2022-09-24T07:41:15.673Z,22.02
2022-09-24T07:43:43.890Z,22.33
2022-09-24T07:46:11.253Z,22.02
2022-09-24T07:48:38.604Z,21.30
2022-09-24T07:51:06.361Z,20.98
2022-09-24T07:53:33.651Z,18.38
2022-09-24T07:56:01.289Z,18.00
2022-09-24T07:58:28.548Z,17.27
2022-09-24T08:00:58.815Z,18.38
2022-09-24T08:03:26.119Z,18.55
2022-09-24T08:05:57.292Z,18.40
2022-09-24T08:08:24.575Z,18.02
2022-09-24T08:10:51.924Z,17.33
2022-09-24T08:13:22.696Z,17.63
2022-09-24T08:16:01.942Z,15.88
2022-09-24T08:18:29.760Z,13.90
2022-09-24T08:20:56.965Z,13.85
2022-09-24T08:23:24.388Z,13.07
2022-09-24T08:25:51.632Z,12.57
2022-09-24T08:28:19.803Z,9.82
2022-09-24T08:30:47.165Z,8.52
2022-09-24T08:33:15.484Z,8.07
2022-09-24T08:35:42.793Z,7.60
2022-09-24T08:38:10.390Z,7.93
2022-09-24T08:40:40.245Z,10.30
2022-09-24T08:43:19.899Z,14.77
2022-09-24T08:46:08.979Z,8.40
2022-09-24T08:48:39.112Z,8.02
2022-09-24T08:51:09.558Z,8.57
2022-09-24T08:53:55.785Z,8.32
2022-09-24T08:56:27.630Z,8.73
2022-09-24T08:59:02.172Z,9.68
2022-09-24T09:01:36.881Z,9.07
2022-09-24T09:04:08.390Z,8.05
2022-09-24T09:06:56.030Z,8.30
2022-09-24T09:09:41.933Z,7.10
2022-09-24T09:12:14.600Z,7.50
2022-09-24T09:14:44.771Z,7.20
2022-09-24T09:17:32.231Z,7.60
2022-09-24T09:20:01.878Z,7.53
2022-09-24T09:22:31.476Z,6.10
2022-09-24T09:25:03.863Z,6.45
2022-09-24T09:27:31.828Z,7.40
2022-09-24T09:29:59.811Z,8.90
2022-09-24T09:32:30.559Z,8.02
2022-09-24T09:35:00.521Z,8.67
2022-09-24T09:37:30.043Z,11.05
2022-09-24T09:40:17.178Z,7.60
2022-09-24T09:42:45.525Z,8.27
2022-09-24T09:45:28.381Z,8.60
2022-09-24T09:47:57.112Z,9.77
2022-09-24T09:50:39.256Z,10.77
2022-09-24T09:53:06.530Z,12.02
2022-09-24T09:55:37.526Z,11.73
2022-09-24T09:58:11.018Z,12.52
2022-09-24T10:00:38.913Z,12.30
2022-09-24T10:03:06.367Z,10.07
2022-09-24T10:05:33.830Z,5.85
2022-09-24T10:08:01.167Z,4.00
2022-09-24T10:10:29.282Z,3.15
2022-09-24T10:13:09.532Z,1.88
2022-09-24T10:15:45.412Z,1.90
2022-09-24T10:18:15.136Z,1.50
2022-09-24T10:20:48.198Z,1.33
2022-09-24T10:23:21.185Z,1.75
2022-09-24T10:25:52.383Z,1.90
2022-09-24T10:28:39.996Z,3.42
2022-09-24T10:31:12.151Z,3.92
2022-09-24T10:33:44.389Z,3.08
2022-09-24T10:36:20.943Z,2.72
2022-09-24T10:38:48.268Z,6.63
2022-09-24T10:41:17.412Z,6.88
2022-09-24T10:43:51.485Z,8.10
2022-09-24T10:46:37.879Z,9.65
2022-09-24T10:49:17.551Z,10.30
2022-09-24T10:52:00.153Z,12.32
2022-09-24T10:54:36.226Z,11.98
2022-09-24T10:57:25.885Z,12.70
2022-09-24T11:00:04.586Z,12.90
2022-09-24T11:02:31.877Z,12.57
2022-09-24T11:05:10.019Z,12.15
2022-09-24T11:07:43.032Z,11.73
2022-09-24T11:10:10.442Z,11.07
2022-09-24T11:12:56.140Z,11.15
2022-09-24T11:15:41.740Z,11.60
2022-09-24T11:18:46.803Z,12.48
2022-09-24T11:21:14.045Z,9.65
2022-09-24T11:23:44.023Z,8.65
2022-09-24T11:26:34.448Z,8.68
2022-09-24T11:29:01.613Z,9.77
2022-09-24T11:31:35.244Z,12.10
2022-09-24T11:34:21.620Z,13.02
2022-09-24T11:37:11.337Z,13.40
2022-09-24T11:40:04.988Z,12.10
2022-09-24T11:42:32.238Z,12.80
2022-09-24T11:45:18.040Z,11.60
2022-09-24T11:48:02.214Z,11.65
2022-09-24T11:50:51.703Z,11.98
2022-09-24T11:53:27.393Z,11.75
2022-09-24T11:55:59.460Z,11.25
2022-09-24T11:58:39.516Z,11.35
2022-09-24T12:01:18.650Z,11.45
2022-09-24T12:03:53.166Z,11.63
2022-09-24T12:06:31.266Z,10.80
2022-09-24T12:09:13.591Z,10.57
2022-09-24T12:11:43.599Z,10.23
2022-09-24T12:14:15.389Z,7.85
2022-09-24T12:16:44.527Z,8.73
2022-09-24T12:19:17.586Z,8.45
2022-09-24T12:21:46.417Z,7.78
2022-09-24T12:24:19.777Z,9.30
2022-09-24T12:26:47.869Z,8.57
2022-09-24T12:29:36.768Z,10.00
2022-09-24T12:32:25.375Z,9.32
2022-09-24T12:34:58.581Z,9.43
2022-09-24T12:37:29.148Z,8.77
2022-09-24T12:40:04.167Z,8.30
2022-09-24T12:42:36.606Z,7.00
2022-09-24T12:45:05.036Z,5.93
2022-09-24T12:47:33.840Z,5.40
2022-09-24T12:50:02.794Z,4.57
2022-09-24T12:52:40.043Z,4.20
2022-09-24T12:55:18.880Z,4.13
2022-09-24T12:57:51.357Z,4.43
2022-09-24T13:00:37.500Z,4.25
2022-09-24T13:03:06.366Z,3.90
2022-09-24T13:05:43.055Z,3.20
2022-09-24T13:08:22.871Z,3.65
2022-09-24T13:11:06.929Z,2.70
2022-09-24T13:13:36.103Z,2.42
2022-09-24T13:16:07.893Z,2.80
2022-09-24T13:18:36.510Z,2.42
2022-09-24T13:21:10.227Z,2.08
2022-09-24T13:23:37.788Z,2.47
2022-09-24T13:26:06.821Z,2.40
2022-09-24T13:28:44.886Z,2.30
2022-09-24T13:31:30.506Z,2.60
2022-09-24T13:34:05.965Z,2.42
2022-09-24T13:36:33.196Z,2.05
2022-09-24T13:39:17.877Z,1.75
2022-09-24T13:41:57.835Z,2.00
2022-09-24T13:44:34.224Z,2.47
2022-09-24T13:47:20.379Z,2.15
2022-09-24T13:49:48.699Z,2.00
2022-09-24T13:52:36.180Z,2.38
2022-09-24T13:55:17.204Z,1.80
2022-09-24T13:57:45.388Z,2.20
2022-09-24T14:00:16.462Z,1.92
2022-09-24T14:02:45.379Z,1.80
2022-09-24T14:05:17.052Z,1.90
2022-09-24T14:10:14.963Z,2.33
2022-09-24T14:12:42.147Z,1.80
2022-09-24T14:15:18.344Z,2.00
2022-09-24T14:17:55.983Z,1.92
2022-09-24T14:20:23.462Z,1.98
2022-09-24T14:22:50.874Z,2.30
2022-09-24T14:25:31.266Z,1.88
2022-09-24T14:27:59.864Z,1.98
2022-09-24T14:30:29.274Z,1.95
2022-09-24T14:33:01.671Z,2.22
2022-09-24T14:35:32.702Z,2.03
2022-09-24T14:38:04.530Z,2.22
2022-09-24T14:40:39.778Z,2.13
2022-09-24T14:43:07.393Z,2.22
2022-09-24T14:45:37.686Z,1.92
2022-09-24T14:48:06.257Z,2.05
2022-09-24T14:50:40.824Z,2.17
2022-09-24T14:53:23.720Z,1.80
2022-09-24T14:55:51.097Z,1.52
2022-09-24T14:58:31.433Z,1.45
2022-09-24T15:01:00.545Z,1.80
2022-09-24T15:03:28.365Z,2.22
2022-09-24T15:06:14.616Z,1.50
2022-09-24T15:08:42.759Z,1.85
2022-09-24T15:11:17.210Z,1.50
2022-09-24T15:13:44.476Z,1.83
2022-09-24T15:16:32.076Z,1.58
2022-09-24T15:19:06.001Z,1.90
2022-09-24T15:21:33.594Z,2.00
2022-09-24T15:24:00.865Z,1.73
2022-09-24T15:26:31.990Z,1.50
2022-09-24T15:28:59.895Z,1.92
2022-09-24T15:31:27.252Z,1.40
2022-09-24T15:33:56.026Z,1.73
2022-09-24T15:36:23.987Z,1.55
2022-09-24T15:38:52.392Z,1.60
2022-09-24T15:41:20.257Z,1.60
2022-09-24T15:43:47.467Z,1.73
2022-09-24T15:46:14.918Z,1.90
2022-09-24T15:48:42.141Z,1.92
2022-09-24T15:51:15.422Z,1.30
2022-09-24T15:53:43.007Z,2.08
2022-09-24T15:56:10.248Z,1.55
2022-09-24T15:58:37.690Z,1.38
2022-09-24T16:01:05.118Z,1.45
2022-09-24T16:03:33.476Z,1.50
2022-09-24T16:06:01.031Z,10.10
2022-09-24T16:08:28.296Z,1.67
2022-09-24T16:10:55.541Z,1.20
2022-09-24T16:13:23.311Z,1.00
2022-09-24T16:15:50.700Z,1.27
2022-09-24T16:18:18.136Z,1.15
2022-09-24T16:20:46.259Z,1.05
2022-09-24T16:23:14.881Z,1.50
2022-09-24T16:25:55.483Z,1.70
2022-09-24T16:28:22.883Z,1.58
2022-09-24T16:30:50.170Z,1.40
2022-09-24T16:33:17.519Z,1.70
2022-09-24T16:35:44.792Z,1.17
2022-09-24T16:38:12.089Z,1.60
2022-09-24T16:40:39.422Z,1.80
2022-09-24T16:43:06.935Z,2.17
2022-09-24T16:45:34.455Z,1.80
2022-09-24T16:48:01.842Z,2.72
2022-09-24T16:50:29.057Z,3.83
2022-09-24T16:52:56.328Z,3.13
2022-09-24T16:55:24.200Z,2.85
2022-09-24T16:57:52.282Z,2.47
2022-09-24T17:00:20.124Z,2.03
2022-09-24T17:02:47.427Z,1.60
2022-09-24T17:05:14.852Z,1.80
2022-09-24T17:07:42.074Z,2.53
2022-09-24T17:10:13.745Z,2.17
2022-09-24T17:15:08.713Z,2.15
2022-09-24T17:17:44.298Z,2.50
2022-09-24T17:20:15.848Z,2.88
2022-09-24T17:22:43.110Z,2.70
2022-09-24T17:25:10.572Z,2.90
2022-09-24T17:27:40.049Z,2.30
2022-09-24T17:30:07.719Z,2.33
2022-09-24T17:32:34.948Z,2.67
2022-09-24T17:35:02.224Z,1.90
2022-09-24T17:37:29.500Z,2.17
2022-09-24T17:39:57.496Z,1.80
2022-09-24T17:42:24.891Z,1.60
2022-09-24T17:44:52.091Z,1.63
2022-09-24T17:47:19.339Z,1.75
2022-09-24T17:49:46.579Z,1.30
2022-09-24T17:52:13.884Z,1.45
2022-09-24T17:54:41.134Z,1.27
2022-09-24T17:57:08.476Z,1.55
2022-09-24T17:59:36.073Z,1.33
2022-09-24T18:02:06.695Z,1.42
2022-09-24T18:04:38.338Z,1.27
2022-09-24T18:07:05.679Z,1.42
2022-09-24T18:09:33.011Z,1.70
2022-09-24T18:12:00.219Z,1.30
2022-09-24T18:14:27.621Z,1.67
2022-09-24T18:16:54.962Z,1.30
2022-09-24T18:19:23.042Z,2.15
2022-09-24T18:21:50.389Z,1.77
2022-09-24T18:24:18.069Z,1.23
2022-09-24T18:26:48.369Z,1.23
2022-09-24T18:31:44.810Z,1.67
2022-09-24T18:34:13.379Z,2.45
2022-09-24T18:36:41.449Z,1.30
2022-09-24T18:39:11.858Z,1.40
2022-09-24T18:41:39.295Z,1.17
2022-09-24T18:44:06.683Z,1.58
2022-09-24T18:46:34.697Z,1.33
2022-09-24T18:49:02.419Z,1.40
2022-09-24T18:51:33.556Z,1.35
2022-09-24T18:54:03.182Z,1.40
2022-09-24T18:56:31.286Z,1.15
2022-09-24T18:59:07.157Z,1.33
2022-09-24T19:01:37.235Z,1.98
2022-09-24T19:04:04.849Z,1.40
2022-09-24T19:06:34.515Z,1.65
2022-09-24T19:09:01.845Z,1.70
2022-09-24T19:11:31.504Z,1.60
2022-09-24T19:13:59.436Z,1.42
2022-09-24T19:16:26.676Z,1.58
2022-09-24T19:18:54.448Z,1.08
2022-09-24T19:21:24.279Z,1.80
2022-09-24T19:23:52.731Z,1.48
2022-09-24T19:26:24.596Z,1.38
2022-09-24T19:31:21.941Z,1.60
2022-09-24T19:33:50.047Z,1.70
2022-09-24T19:36:17.626Z,1.90
2022-09-24T19:38:45.460Z,1.85
2022-09-24T19:41:18.472Z,2.13
2022-09-24T19:43:46.115Z,11.70
2022-09-24T19:46:14.964Z,22.02
2022-09-24T19:48:43.517Z,3.60
2022-09-24T19:51:17.868Z,1.98
2022-09-24T19:53:48.003Z,2.05
2022-09-24T19:56:16.390Z,2.17
2022-09-24T19:58:47.227Z,1.77
2022-09-24T20:01:17.289Z,2.43
2022-09-24T20:03:45.291Z,2.17
2022-09-24T20:06:14.305Z,2.15
2022-09-24T20:08:42.332Z,2.22
2022-09-24T20:11:11.360Z,1.27
2022-09-24T20:13:40.535Z,1.90
2022-09-24T20:16:08.356Z,1.58
2022-09-24T20:18:36.371Z,2.03
2022-09-24T20:21:05.086Z,1.27
2022-09-24T20:23:32.734Z,1.15
2022-09-24T20:26:18.632Z,1.90
2022-09-24T20:28:45.880Z,2.30
2022-09-24T20:31:15.053Z,1.30
2022-09-24T20:33:43.136Z,1.35
2022-09-24T20:36:16.030Z,1.05
2022-09-24T20:38:45.685Z,1.38
2022-09-24T20:41:14.348Z,1.10
2022-09-24T20:43:41.577Z,1.10
2022-09-24T20:46:10.548Z,1.35
2022-09-24T20:48:38.027Z,1.50
2022-09-24T20:51:09.161Z,1.55
2022-09-24T20:53:36.833Z,1.65
2022-09-24T20:56:05.975Z,1.40
2022-09-24T20:58:33.896Z,1.48
2022-09-24T21:01:01.310Z,1.52
2022-09-24T21:03:43.764Z,1.70
2022-09-24T21:06:12.207Z,2.17
2022-09-24T21:08:40.708Z,1.20
2022-09-24T21:11:09.595Z,1.52
2022-09-24T21:13:41.066Z,1.45
2022-09-24T21:16:09.560Z,1.63
2022-09-24T21:18:40.414Z,2.03
2022-09-24T21:21:08.889Z,1.53
2022-09-24T21:23:38.007Z,1.25
2022-09-24T21:26:31.648Z,1.67
2022-09-24T21:29:00.384Z,1.65
2022-09-24T21:31:29.052Z,1.63
2022-09-24T21:33:56.575Z,1.67
2022-09-24T21:36:25.182Z,1.77
2022-09-24T21:38:55.520Z,1.67
2022-09-24T21:41:24.384Z,1.83
2022-09-24T21:43:53.521Z,1.42
2022-09-24T21:46:20.850Z,1.17
2022-09-24T21:48:48.260Z,1.38
2022-09-24T21:51:20.172Z,1.30
2022-09-24T21:53:47.802Z,1.17
2022-09-24T21:56:16.795Z,1.23
2022-09-24T21:58:44.059Z,1.27
2022-09-24T22:01:16.626Z,1.75
2022-09-24T22:03:45.498Z,1.15
2022-09-24T22:06:13.186Z,1.35
2022-09-24T22:08:40.624Z,1.58
2022-09-24T22:11:11.680Z,1.60
2022-09-24T22:13:39.668Z,1.98
2022-09-24T22:16:07.957Z,1.15
2022-09-24T22:18:35.540Z,1.65
2022-09-24T22:21:06.716Z,1.63
2022-09-24T22:23:33.993Z,1.98
2022-09-24T22:26:01.276Z,2.00
2022-09-24T22:28:28.982Z,1.60
2022-09-24T22:30:57.694Z,1.52
2022-09-24T22:33:44.040Z,1.77
2022-09-24T22:36:11.502Z,1.52
2022-09-24T22:38:39.236Z,1.52
2022-09-24T22:41:08.359Z,1.65
2022-09-24T22:43:35.795Z,1.60
2022-09-24T22:46:04.448Z,1.52
2022-09-24T22:48:32.636Z,1.20
2022-09-24T22:50:59.850Z,2.80
2022-09-24T22:53:27.102Z,1.65
2022-09-24T22:56:30.123Z,1.65
2022-09-24T22:58:58.855Z,1.70
2022-09-24T23:01:28.057Z,1.50
2022-09-24T23:03:56.388Z,1.30
2022-09-24T23:06:23.766Z,2.13
2022-09-24T23:08:51.984Z,1.70
2022-09-24T23:11:20.425Z,1.48
2022-09-24T23:13:52.235Z,1.67
2022-09-24T23:16:21.578Z,1.80
2022-09-24T23:18:49.465Z,1.60
2022-09-24T23:21:17.698Z,1.85
2022-09-24T23:23:45.267Z,2.40
2022-09-24T23:26:16.416Z,1.45
2022-09-24T23:31:12.682Z,1.42
2022-09-24T23:33:40.554Z,1.50
2022-09-24T23:36:08.761Z,1.85
2022-09-24T23:38:36.041Z,1.70
2022-09-24T23:41:04.200Z,1.75
2022-09-24T23:43:31.808Z,1.63
2022-09-24T23:45:59.132Z,1.52
2022-09-24T23:48:26.678Z,1.50
2022-09-24T23:50:53.938Z,1.13
2022-09-24T23:53:24.668Z,1.10
2022-09-24T23:55:53.210Z,1.17
2022-09-24T23:58:21.361Z,1.52
